createdAt,value
2023-04-07T00:02:27.504Z,7.60
2023-04-07T00:07:45.278Z,7.60
2023-04-07T00:19:42.963Z,7.60
2023-04-07T00:43:48.370Z,7.50
2023-04-07T00:45:49.962Z,7.60
2023-04-07T00:47:51.633Z,7.70
2023-04-07T00:49:53.415Z,7.70
2023-04-07T00:51:56.065Z,7.70
2023-04-07T00:53:57.759Z,7.70
2023-04-07T00:55:59.429Z,7.70
2023-04-07T00:58:01.241Z,7.60
2023-04-07T01:00:03.226Z,7.50
2023-04-07T01:02:13.006Z,7.50
2023-04-07T01:04:22.708Z,7.50
2023-04-07T01:06:26.800Z,7.50
2023-04-07T01:08:33.265Z,7.60
2023-04-07T01:10:41.696Z,7.70
2023-04-07T01:13:01.427Z,7.70
2023-04-07T01:15:09.312Z,7.70
2023-04-07T01:17:11.876Z,7.70
2023-04-07T01:19:13.499Z,7.70
2023-04-07T01:21:17.293Z,7.70
2023-04-07T01:23:27.813Z,7.60
2023-04-07T01:25:48.014Z,7.50
2023-04-07T01:27:49.614Z,7.50
2023-04-07T01:29:52.190Z,7.40
2023-04-07T01:31:55.629Z,7.40
2023-04-07T01:33:59.169Z,7.50
2023-04-07T01:36:01.502Z,7.50
2023-04-07T01:38:05.129Z,7.60
2023-04-07T01:40:07.633Z,7.50
2023-04-07T01:42:09.492Z,7.50
2023-04-07T01:44:11.436Z,7.60
2023-04-07T01:46:13.433Z,7.50
2023-04-07T01:48:15.831Z,7.50
2023-04-07T01:50:17.690Z,7.60
2023-04-07T01:52:19.730Z,7.60
2023-04-07T01:54:21.717Z,7.60
2023-04-07T01:56:23.374Z,7.60
2023-04-07T01:58:25.952Z,7.60
2023-04-07T02:00:27.606Z,7.60
2023-04-07T02:02:29.408Z,7.50
2023-04-07T02:04:34.124Z,7.50
2023-04-07T02:06:39.364Z,7.50
2023-04-07T02:08:46.324Z,7.60
2023-04-07T02:10:48.650Z,7.60
2023-04-07T02:12:51.018Z,7.50
2023-04-07T02:14:53.018Z,7.50
2023-04-07T02:16:55.318Z,7.50
2023-04-07T02:18:57.406Z,7.50
2023-04-07T02:20:59.597Z,7.50
2023-04-07T02:23:01.238Z,7.50
2023-04-07T02:25:02.966Z,7.50
2023-04-07T02:27:04.718Z,7.50
2023-04-07T02:29:06.307Z,7.60
2023-04-07T02:31:07.914Z,7.60
2023-04-07T02:33:09.531Z,7.60
2023-04-07T02:35:12.117Z,7.50
2023-04-07T02:37:13.782Z,7.50
2023-04-07T02:39:15.427Z,7.60
2023-04-07T02:41:17.140Z,7.60
2023-04-07T02:43:20.389Z,7.50
2023-04-07T02:45:22.042Z,7.50
2023-04-07T02:47:24.002Z,7.50
2023-04-07T02:49:25.608Z,7.50
2023-04-07T02:51:27.218Z,7.40
2023-04-07T02:53:28.883Z,7.40
2023-04-07T02:55:30.592Z,7.40
2023-04-07T02:57:32.213Z,7.50
2023-04-07T02:59:33.832Z,7.50
2023-04-07T03:01:36.495Z,7.60
2023-04-07T03:03:39.667Z,7.60
2023-04-07T03:05:41.347Z,7.60
2023-04-07T03:07:42.995Z,7.60
2023-04-07T03:09:44.597Z,7.50
2023-04-07T03:11:46.593Z,7.50
2023-04-07T03:13:48.200Z,7.60
2023-04-07T03:15:49.845Z,7.50
2023-04-07T03:17:51.665Z,7.50
2023-04-07T03:19:53.636Z,7.50
2023-04-07T03:21:55.418Z,7.50
2023-04-07T03:23:57.033Z,7.60
2023-04-07T03:25:58.770Z,7.40
2023-04-07T03:28:00.385Z,7.50
2023-04-07T03:30:02.217Z,7.50
2023-04-07T03:32:03.808Z,7.50
2023-04-07T03:34:05.465Z,7.50
2023-04-07T03:36:08.262Z,7.50
2023-04-07T03:38:09.921Z,7.40
2023-04-07T03:40:11.787Z,7.40
2023-04-07T03:42:13.406Z,7.50
2023-04-07T03:44:15.493Z,7.50
2023-04-07T03:46:19.008Z,7.50
2023-04-07T03:48:21.181Z,7.60
2023-04-07T03:50:22.776Z,7.50
2023-04-07T03:52:24.410Z,7.40
2023-04-07T03:54:26.086Z,7.40
2023-04-07T03:56:28.974Z,7.40
2023-04-07T03:58:30.863Z,7.30
2023-04-07T04:00:33.552Z,7.40
2023-04-07T04:02:35.468Z,7.40
2023-04-07T04:04:37.378Z,7.30
2023-04-07T04:06:39.165Z,7.20
2023-04-07T04:08:40.864Z,7.30
2023-04-07T04:10:42.449Z,7.30
2023-04-07T04:12:44.222Z,7.30
2023-04-07T04:14:45.856Z,7.30
2023-04-07T04:16:47.537Z,7.30
2023-04-07T04:18:49.170Z,7.40
2023-04-07T04:20:50.870Z,7.30
2023-04-07T04:22:52.556Z,7.30
2023-04-07T04:24:54.149Z,7.30
2023-04-07T04:26:56.800Z,7.20
2023-04-07T04:28:58.427Z,7.20
2023-04-07T04:31:00.309Z,7.30
2023-04-07T04:33:03.108Z,7.30
2023-04-07T04:35:07.382Z,7.20
2023-04-07T04:37:09.126Z,7.20
2023-04-07T04:39:11.024Z,7.20
2023-04-07T04:41:12.663Z,7.10
2023-04-07T04:43:14.403Z,7.10
2023-04-07T04:45:16.218Z,7.20
2023-04-07T04:47:17.877Z,7.30
2023-04-07T04:49:20.058Z,7.30
2023-04-07T04:51:21.702Z,7.30
2023-04-07T04:53:23.316Z,7.30
2023-04-07T04:55:25.187Z,7.30
2023-04-07T04:57:26.808Z,7.40
2023-04-07T04:59:28.397Z,7.30
2023-04-07T05:01:32.812Z,7.30
2023-04-07T05:03:35.381Z,7.20
2023-04-07T05:05:37.102Z,7.20
2023-04-07T05:07:40.366Z,7.20
2023-04-07T05:09:41.987Z,7.20
2023-04-07T05:11:43.641Z,7.30
2023-04-07T05:13:45.294Z,7.30
2023-04-07T05:15:46.993Z,7.30
2023-04-07T05:17:50.566Z,7.40
2023-04-07T05:19:52.367Z,7.40
2023-04-07T05:21:53.980Z,7.40
2023-04-07T05:23:55.719Z,7.30
2023-04-07T05:25:57.463Z,7.30
2023-04-07T05:28:02.346Z,7.20
2023-04-07T05:30:04.132Z,7.30
2023-04-07T05:32:05.850Z,7.40
2023-04-07T05:34:07.536Z,7.50
2023-04-07T05:36:09.343Z,7.50
2023-04-07T05:38:11.629Z,7.50
2023-04-07T05:40:13.875Z,7.50
2023-04-07T05:42:15.666Z,7.50
2023-04-07T05:44:17.368Z,7.50
2023-04-07T05:46:19.043Z,7.60
2023-04-07T05:48:20.757Z,7.50
2023-04-07T05:50:22.424Z,7.60
2023-04-07T05:52:24.026Z,7.60
2023-04-07T05:54:25.755Z,7.70
2023-04-07T05:56:27.424Z,7.80
2023-04-07T05:58:29.025Z,7.80
2023-04-07T06:00:30.685Z,7.80
2023-04-07T06:02:32.539Z,7.90
2023-04-07T06:04:35.378Z,7.90
2023-04-07T06:06:37.553Z,8.00
2023-04-07T06:08:39.218Z,7.90
2023-04-07T06:10:41.710Z,7.90
2023-04-07T06:12:43.380Z,7.90
2023-04-07T06:14:47.074Z,7.90
2023-04-07T06:16:48.771Z,7.90
2023-04-07T06:18:50.492Z,8.00
2023-04-07T06:20:52.138Z,8.00
2023-04-07T06:22:54.773Z,8.10
2023-04-07T06:24:56.538Z,8.10
2023-04-07T06:26:58.267Z,8.00
2023-04-07T06:29:00.037Z,8.00
2023-04-07T06:31:01.727Z,8.10
2023-04-07T06:33:03.395Z,8.10
2023-04-07T06:35:05.332Z,8.10
2023-04-07T06:37:07.942Z,8.10
2023-04-07T06:39:09.685Z,8.10
2023-04-07T06:41:16.745Z,8.10
2023-04-07T06:43:18.511Z,8.20
2023-04-07T06:45:20.666Z,8.30
2023-04-07T06:47:22.365Z,8.30
2023-04-07T06:49:24.071Z,8.30
2023-04-07T06:51:26.339Z,8.30
2023-04-07T06:53:28.078Z,8.40
2023-04-07T06:55:29.726Z,8.40
2023-04-07T06:57:31.321Z,8.50
2023-04-07T06:59:32.888Z,8.50
2023-04-07T07:01:34.637Z,8.50
2023-04-07T07:03:36.699Z,8.50
2023-04-07T07:05:38.371Z,8.50
2023-04-07T07:07:40.104Z,8.50
2023-04-07T07:09:41.707Z,8.50
2023-04-07T07:11:43.440Z,8.50
2023-04-07T07:13:45.314Z,8.60
2023-04-07T07:15:47.023Z,8.60
2023-04-07T07:17:48.729Z,8.60
2023-04-07T07:19:50.649Z,8.60
2023-04-07T07:21:52.237Z,8.70
2023-04-07T07:23:55.018Z,8.60
2023-04-07T07:25:56.726Z,8.70
2023-04-07T07:27:58.365Z,8.90
2023-04-07T07:30:00.007Z,8.90
2023-04-07T07:32:01.578Z,9.10
2023-04-07T07:34:03.246Z,9.20
2023-04-07T07:36:05.005Z,9.30
2023-04-07T07:38:06.826Z,9.30
2023-04-07T07:40:08.493Z,9.40
2023-04-07T07:42:10.205Z,9.50
2023-04-07T07:44:12.137Z,9.40
2023-04-07T07:46:13.822Z,9.40
2023-04-07T07:48:15.484Z,9.50
2023-04-07T07:50:17.103Z,9.60
2023-04-07T07:52:18.839Z,9.50
2023-04-07T07:54:20.461Z,9.60
2023-04-07T07:56:22.497Z,9.70
2023-04-07T07:58:24.156Z,9.80
2023-04-07T08:00:25.869Z,9.90
2023-04-07T08:02:31.354Z,10.00
2023-04-07T08:04:33.304Z,10.20
2023-04-07T08:06:34.927Z,10.20
2023-04-07T08:08:36.535Z,9.90
2023-04-07T08:10:38.317Z,9.90
2023-04-07T08:12:39.994Z,10.10
2023-04-07T08:14:41.922Z,9.90
2023-04-07T08:16:44.064Z,9.70
2023-04-07T08:18:46.008Z,9.50
2023-04-07T08:20:47.804Z,9.70
2023-04-07T08:22:49.419Z,9.90
2023-04-07T08:24:51.108Z,10.00
2023-04-07T08:26:52.782Z,10.00
2023-04-07T08:28:55.990Z,9.90
2023-04-07T08:30:57.732Z,9.80
2023-04-07T08:32:59.437Z,9.90
2023-04-07T08:35:01.370Z,10.00
2023-04-07T08:37:02.991Z,10.00
2023-04-07T08:39:05.650Z,10.00
2023-04-07T08:41:12.106Z,10.00
2023-04-07T08:43:14.400Z,10.10
2023-04-07T08:45:16.776Z,10.10
2023-04-07T08:47:18.606Z,10.30
2023-04-07T08:49:21.281Z,10.60
2023-04-07T08:51:32.679Z,10.70
2023-04-07T08:53:50.501Z,10.50
2023-04-07T08:55:52.485Z,10.60
2023-04-07T08:57:54.367Z,10.70
2023-04-07T08:59:56.477Z,10.70
2023-04-07T09:01:59.237Z,11.00
2023-04-07T09:04:01.997Z,11.00
2023-04-07T09:06:03.973Z,11.20
2023-04-07T09:08:05.621Z,11.60
2023-04-07T09:10:07.556Z,11.60
2023-04-07T09:12:09.249Z,11.50
2023-04-07T09:14:10.889Z,11.80
2023-04-07T09:16:13.986Z,11.70
2023-04-07T09:18:16.514Z,11.60
2023-04-07T09:20:18.164Z,11.80
2023-04-07T09:22:34.941Z,11.90
2023-04-07T09:24:36.624Z,12.10
2023-04-07T09:26:38.213Z,12.00
2023-04-07T09:28:43.936Z,12.30
2023-04-07T09:30:52.731Z,12.60
2023-04-07T09:32:54.778Z,12.80
2023-04-07T09:34:58.747Z,12.80
2023-04-07T09:37:00.663Z,12.80
2023-04-07T09:39:07.692Z,12.50
2023-04-07T09:41:10.514Z,12.60
2023-04-07T09:43:19.271Z,12.70
2023-04-07T09:45:33.915Z,12.80
2023-04-07T09:47:38.209Z,13.10
2023-04-07T09:49:51.113Z,12.60
2023-04-07T09:52:00.009Z,13.10
2023-04-07T09:54:02.937Z,13.70
2023-04-07T09:56:04.644Z,13.80
2023-04-07T09:58:06.437Z,14.00
2023-04-07T10:00:09.697Z,13.80
2023-04-07T10:02:12.030Z,13.80
2023-04-07T10:04:13.761Z,13.60
2023-04-07T10:06:16.556Z,13.30
2023-04-07T10:08:18.856Z,13.40
2023-04-07T10:10:20.490Z,13.80
2023-04-07T10:12:22.205Z,13.70
2023-04-07T10:14:28.795Z,13.80
2023-04-07T10:16:30.654Z,13.90
2023-04-07T10:18:33.508Z,13.90
2023-04-07T10:20:36.996Z,13.80
2023-04-07T10:22:38.973Z,13.90
2023-04-07T10:24:54.608Z,13.80
2023-04-07T10:26:57.898Z,13.90
2023-04-07T10:29:02.667Z,13.80
2023-04-07T10:31:04.581Z,13.70
2023-04-07T10:33:06.369Z,13.80
2023-04-07T10:35:08.191Z,13.70
2023-04-07T10:37:14.005Z,13.40
2023-04-07T10:39:15.722Z,13.20
2023-04-07T10:41:36.297Z,13.40
2023-04-07T10:43:39.895Z,12.90
2023-04-07T10:45:54.425Z,12.70
2023-04-07T10:47:59.629Z,12.40
2023-04-07T10:50:20.658Z,12.60
2023-04-07T10:52:23.187Z,13.20
2023-04-07T10:54:29.078Z,12.90
2023-04-07T10:56:51.041Z,13.20
2023-04-07T10:59:12.745Z,13.50
2023-04-07T11:01:14.322Z,14.10
2023-04-07T11:03:16.387Z,14.20
2023-04-07T11:05:22.805Z,14.50
2023-04-07T11:07:43.438Z,14.20
2023-04-07T11:09:45.461Z,14.00
2023-04-07T11:11:48.598Z,14.70
2023-04-07T11:13:51.332Z,15.10
2023-04-07T11:15:53.329Z,15.00
2023-04-07T11:18:10.258Z,15.00
2023-04-07T11:20:11.887Z,15.40
2023-04-07T11:22:26.313Z,15.60
2023-04-07T11:24:40.439Z,15.90
2023-04-07T11:26:42.142Z,15.20
2023-04-07T11:28:47.616Z,14.10
2023-04-07T11:30:51.876Z,14.20
2023-04-07T11:32:53.762Z,13.50
2023-04-07T11:34:55.895Z,13.60
2023-04-07T11:36:59.903Z,13.70
2023-04-07T11:39:02.386Z,13.40
2023-04-07T11:41:14.090Z,13.20
2023-04-07T11:43:23.038Z,13.50
2023-04-07T11:45:24.674Z,13.70
2023-04-07T11:47:39.509Z,13.70
2023-04-07T11:49:47.061Z,13.40
2023-04-07T11:51:48.665Z,13.70
2023-04-07T11:53:56.932Z,13.70
2023-04-07T11:55:59.608Z,13.60
2023-04-07T11:58:05.984Z,13.50
2023-04-07T12:00:08.617Z,13.40
2023-04-07T12:02:10.432Z,13.30
2023-04-07T12:04:13.169Z,13.30
2023-04-07T12:06:27.595Z,13.20
2023-04-07T12:08:42.657Z,13.50
2023-04-07T12:10:45.807Z,13.40
2023-04-07T12:12:47.598Z,13.50
2023-04-07T12:14:49.243Z,13.60
2023-04-07T12:16:50.996Z,13.30
2023-04-07T12:18:52.991Z,13.30
2023-04-07T12:20:54.653Z,12.90
2023-04-07T12:22:56.588Z,13.00
2023-04-07T12:24:58.186Z,12.80
2023-04-07T12:26:59.981Z,12.90
2023-04-07T12:29:05.185Z,13.10
2023-04-07T12:31:06.902Z,12.60
2023-04-07T12:33:08.496Z,12.50
2023-04-07T12:35:10.108Z,12.50
2023-04-07T12:37:11.684Z,12.30
2023-04-07T12:39:13.283Z,12.20
2023-04-07T12:41:14.875Z,11.70
2023-04-07T12:43:16.608Z,11.40
2023-04-07T12:45:18.295Z,11.20
2023-04-07T12:47:22.141Z,11.20
2023-04-07T12:49:23.889Z,11.20
2023-04-07T12:51:26.163Z,11.10
2023-04-07T12:53:27.849Z,11.00
2023-04-07T12:55:30.905Z,11.00
2023-04-07T12:57:32.790Z,11.00
2023-04-07T12:59:34.552Z,10.80
2023-04-07T13:01:37.386Z,10.70
2023-04-07T13:03:39.230Z,10.70
2023-04-07T13:05:40.947Z,10.40
2023-04-07T13:07:42.600Z,10.40
2023-04-07T13:09:44.318Z,10.30
2023-04-07T13:11:46.133Z,10.30
2023-04-07T13:13:47.986Z,10.00
2023-04-07T13:15:49.875Z,9.90
2023-04-07T13:17:52.171Z,9.90
2023-04-07T13:19:54.328Z,9.90
2023-04-07T13:21:56.872Z,9.90
2023-04-07T13:23:58.589Z,9.90
2023-04-07T13:26:00.412Z,9.90
2023-04-07T13:28:02.078Z,10.00
2023-04-07T13:30:03.985Z,9.90
2023-04-07T13:32:09.822Z,9.90
2023-04-07T13:34:11.576Z,10.00
2023-04-07T13:36:13.261Z,10.10
2023-04-07T13:38:14.970Z,10.10
2023-04-07T13:40:16.706Z,10.20
2023-04-07T13:42:20.474Z,10.20
2023-04-07T13:44:22.226Z,10.30
2023-04-07T13:46:27.997Z,10.40
2023-04-07T13:48:30.259Z,10.40
2023-04-07T13:50:31.842Z,10.50
2023-04-07T13:52:35.483Z,10.50
2023-04-07T13:54:38.572Z,10.60
2023-04-07T13:56:41.184Z,10.60
2023-04-07T13:58:42.749Z,10.70
2023-04-07T14:00:44.340Z,10.60
2023-04-07T14:02:47.701Z,10.50
2023-04-07T14:04:50.466Z,10.50
2023-04-07T14:06:52.356Z,10.50
2023-04-07T14:08:53.960Z,10.60
2023-04-07T14:10:55.720Z,10.80
2023-04-07T14:12:57.573Z,11.00
2023-04-07T14:14:59.154Z,11.10
2023-04-07T14:17:00.902Z,11.10
2023-04-07T14:19:02.536Z,11.20
2023-04-07T14:21:05.130Z,11.40
2023-04-07T14:23:06.956Z,11.30
2023-04-07T14:25:08.661Z,11.40
2023-04-07T14:27:10.613Z,11.60
2023-04-07T14:29:12.732Z,11.70
2023-04-07T14:31:15.986Z,11.90
2023-04-07T14:33:17.603Z,11.90
2023-04-07T14:35:19.251Z,12.00
2023-04-07T14:37:24.572Z,11.90
2023-04-07T14:39:26.297Z,11.80
2023-04-07T14:41:27.952Z,11.70
2023-04-07T14:43:30.357Z,12.00
2023-04-07T14:45:32.750Z,12.30
2023-04-07T14:47:34.342Z,12.40
2023-04-07T14:49:35.962Z,12.30
2023-04-07T14:51:37.629Z,12.10
2023-04-07T14:53:40.322Z,12.10
2023-04-07T14:55:42.329Z,12.30
2023-04-07T14:57:43.911Z,12.30
2023-04-07T14:59:45.578Z,12.30
2023-04-07T15:01:47.307Z,12.20
2023-04-07T15:03:51.723Z,12.30
2023-04-07T15:05:53.558Z,12.30
2023-04-07T15:07:55.236Z,12.30
2023-04-07T15:09:56.866Z,12.20
2023-04-07T15:12:00.289Z,12.30
2023-04-07T15:14:02.128Z,12.30
2023-04-07T15:16:07.800Z,12.30
2023-04-07T15:18:09.477Z,12.20
2023-04-07T15:20:12.741Z,12.20
2023-04-07T15:22:14.400Z,12.10
2023-04-07T15:24:16.567Z,12.10
2023-04-07T15:26:18.393Z,12.00
2023-04-07T15:28:20.204Z,12.00
2023-04-07T15:30:21.900Z,12.00
2023-04-07T15:32:23.518Z,12.10
2023-04-07T15:34:25.129Z,12.10
2023-04-07T15:36:27.382Z,11.90
2023-04-07T15:38:29.314Z,12.00
2023-04-07T15:40:30.874Z,12.10
2023-04-07T15:42:35.520Z,12.00
2023-04-07T15:44:39.592Z,12.10
2023-04-07T15:46:41.314Z,12.10
2023-04-07T15:48:42.942Z,12.00
2023-04-07T15:50:44.607Z,12.00
2023-04-07T15:52:46.244Z,11.90
2023-04-07T15:54:47.783Z,11.90
2023-04-07T15:56:49.424Z,11.80
2023-04-07T15:58:51.038Z,11.80
2023-04-07T16:00:52.691Z,11.80
2023-04-07T16:02:55.764Z,11.80
2023-04-07T16:04:57.624Z,12.00
2023-04-07T16:06:59.315Z,11.90
2023-04-07T16:09:00.898Z,11.80
2023-04-07T16:11:02.498Z,11.90
2023-04-07T16:13:04.064Z,11.90
2023-04-07T16:15:11.106Z,12.10
2023-04-07T16:17:12.854Z,12.20
2023-04-07T16:19:14.577Z,12.40
2023-04-07T16:21:16.332Z,12.60
2023-04-07T16:23:17.990Z,12.70
2023-04-07T16:25:19.674Z,13.10
2023-04-07T16:28:08.942Z,13.90
2023-04-07T16:32:53.542Z,14.50
2023-04-07T16:40:26.755Z,13.10
2023-04-07T17:26:11.416Z,10.40
2023-04-07T17:28:13.419Z,10.30
2023-04-07T17:30:15.068Z,10.20
2023-04-07T17:32:16.655Z,10.20
2023-04-07T17:34:18.226Z,10.10
2023-04-07T17:36:19.912Z,10.10
2023-04-07T17:38:21.521Z,10.00
2023-04-07T17:40:23.208Z,9.90
2023-04-07T17:42:24.844Z,9.90
2023-04-07T17:44:26.497Z,10.00
2023-04-07T17:48:29.892Z,10.10
2023-04-07T17:50:31.997Z,10.00
2023-04-07T17:52:33.639Z,10.00
2023-04-07T17:54:35.481Z,10.00
2023-04-07T17:56:38.150Z,10.00
2023-04-07T17:58:40.591Z,10.00
2023-04-07T18:00:42.224Z,10.00
2023-04-07T18:02:44.172Z,10.10
2023-04-07T18:04:46.691Z,10.00
2023-04-07T18:06:48.959Z,10.00
2023-04-07T18:08:50.789Z,10.00
2023-04-07T18:10:52.397Z,10.10
2023-04-07T18:12:54.069Z,10.10
2023-04-07T18:14:55.666Z,10.20
2023-04-07T18:16:57.258Z,10.30
2023-04-07T18:19:00.580Z,10.30
2023-04-07T18:21:02.219Z,10.30
2023-04-07T18:23:03.956Z,10.30
2023-04-07T18:25:06.604Z,10.40
2023-04-07T18:27:08.508Z,10.30
2023-04-07T18:29:11.417Z,10.30
2023-04-07T18:31:13.446Z,10.30
2023-04-07T18:33:15.449Z,10.30
2023-04-07T18:35:17.138Z,10.30
2023-04-07T18:37:18.780Z,10.30
2023-04-07T18:39:20.499Z,10.30
2023-04-07T18:41:22.198Z,10.30
2023-04-07T18:43:23.903Z,10.40
2023-04-07T18:45:26.059Z,10.40
2023-04-07T18:47:29.848Z,10.30
2023-04-07T18:49:31.563Z,10.40
2023-04-07T18:51:33.218Z,10.40
2023-04-07T18:53:34.805Z,10.40
2023-04-07T18:55:36.476Z,10.40
2023-04-07T18:57:39.384Z,10.30
2023-04-07T18:59:41.037Z,10.30
2023-04-07T19:01:42.826Z,10.30
2023-04-07T19:03:44.617Z,10.30
2023-04-07T19:05:47.827Z,10.20
2023-04-07T19:07:49.644Z,10.20
2023-04-07T19:09:53.755Z,10.20
2023-04-07T19:11:56.163Z,10.20
2023-04-07T19:13:57.815Z,10.20
2023-04-07T19:16:00.285Z,10.20
2023-04-07T19:18:02.466Z,10.10
2023-04-07T19:20:04.555Z,10.10
2023-04-07T19:22:06.632Z,10.10
2023-04-07T19:24:08.359Z,10.10
2023-04-07T19:26:13.544Z,10.10
2023-04-07T19:28:15.433Z,10.10
2023-04-07T19:30:17.402Z,10.00
2023-04-07T19:32:19.193Z,10.00
2023-04-07T19:34:21.006Z,9.90
2023-04-07T19:36:22.674Z,9.90
2023-04-07T19:38:24.541Z,9.90
2023-04-07T19:40:26.236Z,9.90
2023-04-07T19:42:29.270Z,9.90
2023-04-07T19:44:31.183Z,9.80
2023-04-07T19:46:36.471Z,9.80
2023-04-07T19:48:38.323Z,9.70
2023-04-07T19:50:43.576Z,9.70
2023-04-07T19:52:45.650Z,9.60
2023-04-07T19:54:47.356Z,9.60
2023-04-07T19:56:48.932Z,9.60
2023-04-07T19:58:50.851Z,9.60
2023-04-07T20:00:54.134Z,9.60
2023-04-07T20:02:56.570Z,9.50
2023-04-07T20:04:58.234Z,9.40
2023-04-07T20:07:00.305Z,9.30
2023-04-07T20:09:02.169Z,9.20
2023-04-07T20:11:03.847Z,9.10
2023-04-07T20:13:06.489Z,9.00
2023-04-07T20:15:08.643Z,9.00
2023-04-07T20:17:10.398Z,9.00
2023-04-07T20:19:12.002Z,9.00
2023-04-07T20:21:15.138Z,9.00
2023-04-07T20:23:22.008Z,8.90
2023-04-07T20:25:23.638Z,8.90
2023-04-07T20:27:27.016Z,8.90
2023-04-07T20:29:28.674Z,9.00
2023-04-07T20:31:30.656Z,9.00
2023-04-07T20:33:32.234Z,9.00
2023-04-07T20:35:34.094Z,9.00
2023-04-07T20:37:36.047Z,9.00
2023-04-07T20:39:38.108Z,9.00
2023-04-07T20:41:42.675Z,9.10
2023-04-07T20:43:44.437Z,9.10
2023-04-07T20:45:47.371Z,9.10
2023-04-07T20:47:50.071Z,9.10
2023-04-07T20:49:54.714Z,9.10
2023-04-07T20:51:56.955Z,9.10
2023-04-07T20:53:58.568Z,9.10
2023-04-07T20:56:00.400Z,9.20
2023-04-07T20:58:02.022Z,9.20
2023-04-07T21:00:05.310Z,9.10
2023-04-07T21:02:07.208Z,9.20
2023-04-07T21:04:09.243Z,9.20
2023-04-07T21:06:11.332Z,9.10
2023-04-07T21:08:14.613Z,9.10
2023-04-07T21:10:16.618Z,9.10
2023-04-07T21:12:18.556Z,9.00
2023-04-07T21:14:20.577Z,9.00
2023-04-07T21:16:25.608Z,9.00
2023-04-07T21:18:27.453Z,9.10
2023-04-07T21:20:29.559Z,9.20
2023-04-07T21:22:31.215Z,9.20
2023-04-07T21:24:32.907Z,9.20
2023-04-07T21:26:34.543Z,9.10
2023-04-07T21:28:36.480Z,9.10
2023-04-07T21:30:42.003Z,9.20
2023-04-07T21:32:46.702Z,9.30
2023-04-07T21:34:51.591Z,9.20
2023-04-07T21:36:53.550Z,9.20
2023-04-07T21:38:55.209Z,9.20
2023-04-07T21:40:57.556Z,9.20
2023-04-07T21:42:59.394Z,9.10
2023-04-07T21:45:01.497Z,9.20
2023-04-07T21:47:03.768Z,9.20
2023-04-07T21:49:05.534Z,9.10
2023-04-07T21:51:08.027Z,9.10
2023-04-07T21:53:10.339Z,9.20
2023-04-07T21:55:12.126Z,9.20
2023-04-07T21:57:13.793Z,9.20
2023-04-07T21:59:17.264Z,9.20
2023-04-07T22:01:18.976Z,9.20
2023-04-07T22:03:20.794Z,9.20
2023-04-07T22:05:22.606Z,9.20
2023-04-07T22:07:24.260Z,9.20
2023-04-07T22:09:26.089Z,9.20
2023-04-07T22:11:27.725Z,9.20
2023-04-07T22:13:29.357Z,9.10
2023-04-07T22:15:31.138Z,9.20
2023-04-07T22:17:32.869Z,9.20
2023-04-07T22:19:34.521Z,9.20
2023-04-07T22:21:36.967Z,9.10
2023-04-07T22:23:38.725Z,9.20
2023-04-07T22:25:40.330Z,9.20
2023-04-07T22:27:41.970Z,9.10
2023-04-07T22:29:43.682Z,9.10
2023-04-07T22:31:45.493Z,9.20
2023-04-07T22:33:47.187Z,9.20
2023-04-07T22:35:48.867Z,9.20
2023-04-07T22:37:50.492Z,9.20
2023-04-07T22:39:52.113Z,9.20
2023-04-07T22:41:53.807Z,9.20
2023-04-07T22:43:55.719Z,9.20
2023-04-07T22:45:57.508Z,9.20
2023-04-07T22:48:00.513Z,9.20
2023-04-07T22:50:02.236Z,9.20
2023-04-07T22:52:04.036Z,9.10
2023-04-07T22:54:06.054Z,9.20
2023-04-07T22:56:07.970Z,9.20
2023-04-07T22:58:09.654Z,9.20
2023-04-07T23:00:11.769Z,9.10
2023-04-07T23:02:13.521Z,9.20
2023-04-07T23:04:15.184Z,9.20
2023-04-07T23:06:16.801Z,9.10
2023-04-07T23:08:18.404Z,9.10
2023-04-07T23:10:20.064Z,9.10
2023-04-07T23:12:21.683Z,9.00
2023-04-07T23:14:23.353Z,9.00
2023-04-07T23:16:25.006Z,9.00
2023-04-07T23:18:26.645Z,8.90
2023-04-07T23:20:28.360Z,8.90
2023-04-07T23:22:29.996Z,8.90
2023-04-07T23:24:31.699Z,8.90
2023-04-07T23:26:33.336Z,8.90
2023-04-07T23:28:34.977Z,9.00
2023-04-07T23:30:37.415Z,9.00
2023-04-07T23:32:39.096Z,9.00
2023-04-07T23:34:40.813Z,9.10
2023-04-07T23:36:42.581Z,9.10
2023-04-07T23:38:44.244Z,9.10
2023-04-07T23:40:45.861Z,9.00
2023-04-07T23:42:47.598Z,9.10
2023-04-07T23:44:49.315Z,9.10
2023-04-07T23:46:51.002Z,9.10
2023-04-07T23:48:52.717Z,9.10
2023-04-07T23:50:54.460Z,9.00
2023-04-07T23:52:56.232Z,9.10
2023-04-07T23:54:58.207Z,9.00
2023-04-07T23:56:59.808Z,9.10
2023-04-07T23:59:01.419Z,9.00
